Cove, Texas
Current Conditions -  °F | °C
As of 8:50 AM on Monday 24 Nov 2014 (Local Time) from KEFD Reporting Station
Few Clouds Few Clouds  
Wind Chill: 55°   Ceiling: Unl
Heat Index: 55°   Visibility: 10mi
Dew Point: 37°   Wind: 14mph
Humidity: 51%   Direction: 340°NNW
Pressure: 30.03"   Gusts: NA
Location:  29.7803°N, 94.894°W
Report Text: KEFD 241450Z 34012KT 10SM FEW250 13/03 A3003
Loading
Personal Weather Stations






























Interactive Weather Map New forecast layout! Learn more

10-Day Weather Forecast

Advertisements
Track Severe Weather on mobile